createdAt,value
2018-05-31T00:00:53.562Z,99.99
2018-05-31T00:01:53.621Z,99.99
2018-05-31T00:02:53.658Z,99.99
2018-05-31T00:03:53.716Z,99.99
2018-05-31T00:04:53.761Z,99.99
2018-05-31T00:05:53.912Z,99.99
2018-05-31T00:06:53.842Z,99.99
2018-05-31T00:07:53.927Z,99.99
2018-05-31T00:08:53.927Z,99.99
2018-05-31T00:09:53.979Z,99.99
2018-05-31T00:10:54.124Z,99.99
2018-05-31T00:11:54.070Z,99.99
2018-05-31T00:12:54.108Z,99.99
2018-05-31T00:13:54.150Z,99.99
2018-05-31T00:14:54.205Z,99.99
2018-05-31T00:15:54.238Z,99.99
2018-05-31T00:16:54.283Z,99.99
2018-05-31T00:17:54.426Z,99.99
2018-05-31T00:18:54.355Z,99.99
2018-05-31T00:19:54.417Z,99.99
2018-05-31T00:20:54.459Z,99.99
2018-05-31T00:21:54.486Z,99.99
2018-05-31T00:22:54.649Z,99.99
2018-05-31T00:23:54.582Z,99.99
2018-05-31T00:24:54.647Z,99.99
2018-05-31T00:25:54.673Z,99.99
2018-05-31T00:26:54.719Z,99.99
2018-05-31T00:27:54.759Z,99.99
2018-05-31T00:28:54.812Z,99.99
2018-05-31T00:29:54.847Z,99.99
2018-05-31T00:30:54.883Z,99.99
2018-05-31T00:31:54.941Z,99.99
2018-05-31T00:32:55.077Z,99.99
2018-05-31T00:33:55.029Z,99.99
2018-05-31T00:34:55.082Z,99.99
2018-05-31T00:35:55.118Z,99.99
2018-05-31T00:36:55.171Z,99.99
2018-05-31T00:37:55.203Z,99.99
2018-05-31T00:38:55.237Z,99.99
2018-05-31T00:39:55.391Z,99.99
2018-05-31T00:40:55.325Z,99.99
2018-05-31T00:41:55.369Z,99.99
2018-05-31T00:42:55.428Z,99.99
2018-05-31T00:43:55.454Z,99.99
2018-05-31T00:44:55.505Z,99.99
2018-05-31T00:45:55.561Z,99.99
2018-05-31T00:46:55.587Z,99.99
2018-05-31T00:47:55.647Z,99.99
2018-05-31T00:48:55.695Z,99.99
2018-05-31T00:49:55.831Z,99.99
2018-05-31T00:50:55.781Z,99.99
2018-05-31T00:51:55.819Z,99.99
2018-05-31T00:52:55.866Z,99.99
2018-05-31T00:53:55.906Z,99.99
2018-05-31T00:54:55.933Z,99.99
2018-05-31T00:55:55.991Z,99.99
2018-05-31T00:56:56.051Z,99.99
2018-05-31T00:57:56.074Z,99.99
2018-05-31T00:58:56.123Z,99.99
2018-05-31T00:59:56.259Z,99.99
2018-05-31T01:00:56.196Z,99.99
2018-05-31T01:01:56.259Z,99.99
2018-05-31T01:02:56.285Z,99.99
2018-05-31T01:03:56.339Z,99.99
2018-05-31T01:04:56.376Z,99.99
2018-05-31T01:05:56.432Z,99.99
2018-05-31T01:06:56.577Z,99.99
2018-05-31T01:07:56.518Z,99.99
2018-05-31T01:08:56.559Z,99.99
2018-05-31T01:09:56.592Z,99.99
2018-05-31T01:10:56.631Z,99.99
2018-05-31T01:11:56.680Z,99.99
2018-05-31T01:12:56.831Z,99.99
2018-05-31T01:13:56.793Z,99.99
2018-05-31T01:14:56.809Z,99.99
2018-05-31T01:15:56.869Z,99.99
2018-05-31T01:16:56.901Z,99.99
2018-05-31T01:17:56.953Z,99.99
2018-05-31T01:18:57.114Z,99.99
2018-05-31T01:19:57.048Z,99.99
2018-05-31T01:20:57.086Z,99.99
2018-05-31T01:21:57.122Z,99.99
2018-05-31T01:22:57.161Z,99.99
2018-05-31T01:23:57.302Z,99.99
2018-05-31T01:24:57.242Z,99.99
2018-05-31T01:25:57.288Z,99.99
2018-05-31T01:26:57.334Z,99.99
2018-05-31T01:27:57.399Z,99.99
2018-05-31T01:28:57.425Z,99.99
2018-05-31T01:29:57.460Z,99.99
2018-05-31T01:30:57.624Z,99.99
2018-05-31T01:31:57.562Z,99.99
2018-05-31T01:32:57.602Z,99.99
2018-05-31T01:33:57.673Z,99.99
2018-05-31T01:34:57.698Z,99.99
2018-05-31T01:35:57.733Z,99.99
2018-05-31T01:36:57.863Z,99.99
2018-05-31T01:37:57.809Z,99.99
2018-05-31T01:38:57.875Z,99.99
2018-05-31T01:39:57.908Z,99.99
2018-05-31T01:40:57.940Z,99.99
2018-05-31T01:41:57.983Z,99.99
2018-05-31T01:42:58.150Z,99.99
2018-05-31T01:43:58.092Z,99.99
2018-05-31T01:44:58.120Z,99.99
2018-05-31T01:45:58.173Z,99.99
2018-05-31T01:46:58.212Z,99.99
2018-05-31T01:47:58.265Z,99.99
2018-05-31T01:48:58.408Z,99.99
2018-05-31T01:49:58.330Z,99.99
2018-05-31T01:50:58.385Z,99.99
2018-05-31T01:51:58.416Z,99.99
2018-05-31T01:52:58.465Z,99.99
2018-05-31T01:53:58.521Z,99.99
2018-05-31T01:54:58.646Z,99.99
2018-05-31T01:55:58.603Z,99.99
2018-05-31T01:56:58.646Z,99.99
2018-05-31T01:57:58.679Z,99.99
2018-05-31T01:58:58.738Z,99.99
2018-05-31T01:59:58.892Z,99.99
2018-05-31T02:00:58.816Z,99.99
2018-05-31T02:01:58.879Z,99.99
2018-05-31T02:02:58.910Z,99.99
2018-05-31T02:03:58.952Z,99.99
2018-05-31T02:04:58.998Z,99.99
2018-05-31T02:05:59.028Z,99.99
2018-05-31T02:06:59.068Z,99.99
2018-05-31T02:07:59.190Z,99.99
2018-05-31T02:08:59.169Z,99.99
2018-05-31T02:09:59.220Z,99.99
2018-05-31T02:10:59.339Z,99.99
2018-05-31T02:11:59.296Z,99.99
2018-05-31T02:12:59.333Z,99.99
2018-05-31T02:13:59.393Z,99.99
2018-05-31T02:14:59.430Z,99.99
2018-05-31T02:15:59.461Z,99.99
2018-05-31T02:16:59.598Z,99.99
2018-05-31T02:17:59.558Z,99.24
2018-05-31T02:18:59.600Z,98.19
2018-05-31T02:19:59.634Z,98.00
2018-05-31T02:20:59.686Z,96.94
2018-05-31T02:21:59.844Z,95.98
2018-05-31T02:22:59.771Z,96.47
2018-05-31T02:23:59.829Z,96.37
2018-05-31T02:24:59.861Z,96.66
2018-05-31T02:25:59.905Z,97.33
2018-05-31T02:26:59.938Z,97.33
2018-05-31T02:27:59.994Z,96.75
2018-05-31T02:29:00.033Z,96.66
2018-05-31T02:30:00.092Z,96.47
2018-05-31T02:31:00.104Z,96.37
2018-05-31T02:32:00.279Z,97.23
2018-05-31T02:33:00.201Z,95.60
2018-05-31T02:34:00.239Z,95.41
2018-05-31T02:35:00.275Z,96.75
2018-05-31T02:36:00.334Z,97.23
2018-05-31T02:37:00.378Z,97.23
2018-05-31T02:38:00.511Z,97.14
2018-05-31T02:39:00.460Z,97.14
2018-05-31T02:40:00.512Z,96.75
2018-05-31T02:41:00.544Z,96.66
2018-05-31T02:42:00.599Z,97.23
2018-05-31T02:43:00.635Z,97.33
2018-05-31T02:44:00.898Z,97.56
2018-05-31T02:45:00.727Z,98.14
2018-05-31T02:46:00.763Z,97.85
2018-05-31T02:47:00.799Z,97.76
2018-05-31T02:48:00.840Z,98.43
2018-05-31T02:49:01.000Z,98.14
2018-05-31T02:50:00.943Z,98.52
2018-05-31T02:51:00.980Z,98.52
2018-05-31T02:52:01.032Z,98.72
2018-05-31T02:53:01.077Z,98.81
2018-05-31T02:54:01.107Z,98.91
2018-05-31T02:55:01.358Z,98.91
2018-05-31T02:56:01.205Z,99.58
2018-05-31T02:57:01.244Z,98.72
2018-05-31T02:58:01.303Z,99.99
2018-05-31T02:59:01.323Z,99.96
2018-05-31T03:00:01.367Z,99.99
2018-05-31T03:01:01.518Z,99.99
2018-05-31T03:02:01.454Z,99.99
2018-05-31T03:03:01.507Z,99.99
2018-05-31T03:04:01.550Z,99.99
2018-05-31T03:05:01.597Z,99.99
2018-05-31T03:06:01.639Z,99.99
2018-05-31T03:07:01.682Z,99.99
2018-05-31T03:08:01.825Z,99.99
2018-05-31T03:09:01.767Z,99.99
2018-05-31T03:10:01.808Z,99.99
2018-05-31T03:11:01.861Z,99.99
2018-05-31T03:12:01.885Z,99.99
2018-05-31T03:13:02.148Z,99.99
2018-05-31T03:14:01.992Z,99.99
2018-05-31T03:15:02.012Z,99.99
2018-05-31T03:16:02.065Z,99.99
2018-05-31T03:17:02.120Z,99.99
2018-05-31T03:18:02.166Z,99.99
2018-05-31T03:19:02.189Z,99.99
2018-05-31T03:20:02.243Z,99.99
2018-05-31T03:21:02.280Z,99.99
2018-05-31T03:22:02.308Z,99.99
2018-05-31T03:23:02.448Z,99.99
2018-05-31T03:24:02.609Z,99.99
2018-05-31T03:25:02.453Z,99.99
2018-05-31T03:26:02.511Z,99.99
2018-05-31T03:27:02.550Z,99.99
2018-05-31T03:28:02.568Z,99.99
2018-05-31T03:29:02.614Z,99.99
2018-05-31T03:30:02.764Z,99.99
2018-05-31T03:31:02.714Z,99.99
2018-05-31T03:32:02.754Z,99.99
2018-05-31T03:33:02.796Z,99.99
2018-05-31T03:34:02.824Z,99.99
2018-05-31T03:35:02.968Z,99.99
2018-05-31T03:36:02.937Z,99.99
2018-05-31T03:37:02.971Z,99.99
2018-05-31T03:38:03.009Z,99.99
2018-05-31T03:39:03.054Z,99.99
2018-05-31T03:40:03.099Z,99.99
2018-05-31T03:41:03.328Z,99.99
2018-05-31T03:42:03.167Z,99.99
2018-05-31T03:43:03.208Z,99.99
2018-05-31T03:44:03.271Z,99.99
2018-05-31T03:45:03.300Z,99.99
2018-05-31T03:46:03.342Z,99.99
2018-05-31T03:47:03.479Z,99.99
2018-05-31T03:48:03.441Z,99.99
2018-05-31T03:49:03.477Z,99.99
2018-05-31T03:50:03.510Z,99.99
2018-05-31T03:51:03.572Z,99.99
2018-05-31T03:52:03.604Z,99.99
2018-05-31T03:53:03.752Z,99.99
2018-05-31T03:54:03.680Z,99.99
2018-05-31T03:55:03.738Z,99.99
2018-05-31T03:56:03.772Z,99.99
2018-05-31T03:57:03.815Z,99.99
2018-05-31T03:58:04.056Z,99.99
2018-05-31T03:59:03.908Z,99.99
2018-05-31T04:00:03.940Z,99.99
2018-05-31T04:01:04.001Z,99.99
2018-05-31T04:02:04.042Z,99.99
2018-05-31T04:03:04.067Z,99.99
2018-05-31T04:04:04.230Z,99.99
2018-05-31T04:05:04.176Z,99.99
2018-05-31T04:06:04.208Z,99.99
2018-05-31T04:07:04.259Z,99.99
2018-05-31T04:08:04.296Z,99.99
2018-05-31T04:09:04.329Z,99.99
2018-05-31T04:10:04.592Z,99.99
2018-05-31T04:11:04.434Z,99.99
2018-05-31T04:12:04.464Z,99.99
2018-05-31T04:13:04.551Z,99.99
2018-05-31T04:14:04.535Z,99.99
2018-05-31T04:15:04.700Z,99.99
2018-05-31T04:16:04.629Z,99.99
2018-05-31T04:17:04.690Z,99.99
2018-05-31T04:18:04.709Z,99.99
2018-05-31T04:19:04.776Z,99.99
2018-05-31T04:20:04.796Z,99.99
2018-05-31T04:21:05.035Z,99.99
2018-05-31T04:22:04.892Z,99.99
2018-05-31T04:23:04.921Z,99.99
2018-05-31T04:24:04.976Z,99.99
2018-05-31T04:25:05.005Z,99.99
2018-05-31T04:26:05.253Z,99.99
2018-05-31T04:27:05.202Z,99.99
2018-05-31T04:28:05.137Z,99.99
2018-05-31T04:29:05.174Z,99.99
2018-05-31T04:30:05.235Z,99.99
2018-05-31T04:31:05.303Z,99.99
2018-05-31T04:32:05.318Z,99.99
2018-05-31T04:33:05.579Z,99.99
2018-05-31T04:34:05.389Z,99.99
2018-05-31T04:35:05.440Z,99.99
2018-05-31T04:36:05.488Z,99.99
2018-05-31T04:37:05.533Z,99.99
2018-05-31T04:38:05.575Z,99.99
2018-05-31T04:39:05.705Z,99.99
2018-05-31T04:40:05.654Z,99.99
2018-05-31T04:41:05.700Z,99.99
2018-05-31T04:42:05.739Z,99.99
2018-05-31T04:43:05.791Z,99.99
2018-05-31T04:44:05.814Z,99.99
2018-05-31T04:45:05.858Z,99.99
2018-05-31T04:46:06.012Z,99.99
2018-05-31T04:47:05.952Z,99.99
2018-05-31T04:48:05.983Z,99.99
2018-05-31T04:49:06.045Z,99.99
2018-05-31T04:50:06.091Z,99.99
2018-05-31T04:51:06.319Z,99.99
2018-05-31T04:52:06.157Z,99.99
2018-05-31T04:53:06.194Z,99.99
2018-05-31T04:54:06.249Z,99.99
2018-05-31T04:55:06.276Z,99.99
2018-05-31T04:56:06.334Z,99.99
2018-05-31T04:57:06.494Z,99.99
2018-05-31T04:58:06.439Z,99.99
2018-05-31T04:59:06.446Z,99.99
2018-05-31T05:00:06.515Z,99.99
2018-05-31T05:01:06.538Z,99.99
2018-05-31T05:02:06.605Z,99.99
2018-05-31T05:03:06.815Z,99.99
2018-05-31T05:04:06.674Z,99.99
2018-05-31T05:05:06.707Z,99.99
2018-05-31T05:06:06.761Z,99.99
2018-05-31T05:07:06.791Z,99.99
2018-05-31T05:08:06.842Z,99.99
2018-05-31T05:09:06.876Z,99.99
2018-05-31T05:10:06.942Z,99.99
2018-05-31T05:11:06.956Z,99.99
2018-05-31T05:12:07.003Z,99.99
2018-05-31T05:13:07.142Z,99.99
2018-05-31T05:14:07.100Z,99.99
2018-05-31T05:15:07.145Z,99.99
2018-05-31T05:16:07.196Z,99.99
2018-05-31T05:17:07.225Z,99.99
2018-05-31T05:18:07.469Z,99.99
2018-05-31T05:19:07.318Z,99.99
2018-05-31T05:20:07.360Z,99.99
2018-05-31T05:21:07.398Z,99.99
2018-05-31T05:22:07.429Z,99.99
2018-05-31T05:23:07.461Z,99.99
2018-05-31T05:24:07.531Z,99.99
2018-05-31T05:25:07.565Z,99.99
2018-05-31T05:26:07.609Z,99.99
2018-05-31T05:27:07.640Z,99.99
2018-05-31T05:28:07.777Z,99.99
2018-05-31T05:29:07.925Z,99.99
2018-05-31T05:30:07.793Z,99.99
2018-05-31T05:31:07.801Z,99.99
2018-05-31T05:32:07.868Z,99.99
2018-05-31T05:33:07.928Z,99.99
2018-05-31T05:34:07.939Z,99.99
2018-05-31T05:35:08.069Z,99.99
2018-05-31T05:36:08.017Z,99.99
2018-05-31T05:37:08.065Z,99.99
2018-05-31T05:38:08.101Z,99.99
2018-05-31T05:39:08.157Z,99.99
2018-05-31T05:40:08.297Z,99.99
2018-05-31T05:41:08.243Z,99.99
2018-05-31T05:42:08.273Z,99.99
2018-05-31T05:43:08.309Z,99.99
2018-05-31T05:44:08.365Z,99.99
2018-05-31T05:45:08.612Z,99.99
2018-05-31T05:46:08.447Z,99.99
2018-05-31T05:47:08.492Z,99.99
2018-05-31T05:48:08.537Z,99.99
2018-05-31T05:49:08.562Z,99.99
2018-05-31T05:50:08.672Z,99.99
2018-05-31T05:51:08.674Z,99.99
2018-05-31T05:52:08.695Z,99.99
2018-05-31T05:53:08.749Z,99.99
2018-05-31T05:54:08.790Z,99.99
2018-05-31T05:55:08.922Z,99.99
2018-05-31T05:56:08.855Z,99.99
2018-05-31T05:57:08.901Z,99.99
2018-05-31T05:58:08.957Z,99.99
2018-05-31T05:59:09.011Z,99.99
2018-05-31T06:00:09.232Z,99.99
2018-05-31T06:01:09.069Z,99.99
2018-05-31T06:02:09.109Z,99.99
2018-05-31T06:03:09.169Z,99.99
2018-05-31T06:04:09.243Z,99.99
2018-05-31T06:05:09.247Z,99.99
2018-05-31T06:06:09.383Z,99.99
2018-05-31T06:07:09.336Z,99.99
2018-05-31T06:08:09.379Z,99.99
2018-05-31T06:09:09.418Z,99.99
2018-05-31T06:10:09.592Z,99.99
2018-05-31T06:11:09.696Z,99.99
2018-05-31T06:12:09.529Z,99.99
2018-05-31T06:13:09.597Z,99.99
2018-05-31T06:14:09.627Z,99.99
2018-05-31T06:15:09.664Z,99.99
2018-05-31T06:16:09.699Z,99.99
2018-05-31T06:17:09.843Z,99.99
2018-05-31T06:18:09.779Z,99.99
2018-05-31T06:19:09.823Z,99.99
2018-05-31T06:20:09.869Z,99.99
2018-05-31T06:21:09.921Z,99.99
2018-05-31T06:22:09.951Z,99.99
2018-05-31T06:23:09.997Z,99.99
2018-05-31T06:24:10.034Z,99.99
2018-05-31T06:25:10.075Z,99.99
2018-05-31T06:26:10.131Z,99.99
2018-05-31T06:27:10.355Z,99.99
2018-05-31T06:28:10.211Z,99.99
2018-05-31T06:29:10.261Z,99.99
2018-05-31T06:30:10.302Z,99.99
2018-05-31T06:31:10.331Z,99.99
2018-05-31T06:32:10.486Z,99.99
2018-05-31T06:33:10.426Z,99.99
2018-05-31T06:34:10.475Z,99.99
2018-05-31T06:35:10.490Z,99.99
2018-05-31T06:36:10.534Z,99.99
2018-05-31T06:37:10.626Z,99.99
2018-05-31T06:38:10.625Z,99.99
2018-05-31T06:39:10.656Z,99.99
2018-05-31T06:40:10.705Z,99.99
2018-05-31T06:41:10.740Z,99.99
2018-05-31T06:42:10.998Z,99.99
2018-05-31T06:43:10.825Z,99.99
2018-05-31T06:44:10.866Z,99.99
2018-05-31T06:45:10.929Z,99.99
2018-05-31T06:46:10.968Z,99.99
2018-05-31T06:47:11.110Z,99.99
2018-05-31T06:48:11.031Z,99.99
2018-05-31T06:49:11.092Z,99.99
2018-05-31T06:50:11.121Z,99.99
2018-05-31T06:51:11.164Z,99.99
2018-05-31T06:52:11.202Z,99.99
2018-05-31T06:53:11.447Z,99.99
2018-05-31T06:54:11.307Z,99.99
2018-05-31T06:55:11.348Z,99.99
2018-05-31T06:56:11.385Z,99.99
2018-05-31T06:57:11.426Z,99.99
2018-05-31T06:58:11.473Z,99.99
2018-05-31T06:59:11.594Z,99.99
2018-05-31T07:00:11.552Z,99.99
2018-05-31T07:01:11.599Z,99.99
2018-05-31T07:02:11.642Z,99.99
2018-05-31T07:03:11.666Z,99.99
2018-05-31T07:04:11.700Z,99.99
2018-05-31T07:05:11.963Z,99.99
2018-05-31T07:06:11.802Z,99.99
2018-05-31T07:07:11.833Z,99.99
2018-05-31T07:08:11.871Z,99.99
2018-05-31T07:09:11.914Z,99.99
2018-05-31T07:10:11.952Z,99.99
2018-05-31T07:11:12.115Z,99.99
2018-05-31T07:12:12.038Z,99.99
2018-05-31T07:13:12.085Z,99.99
2018-05-31T07:14:12.132Z,99.99
2018-05-31T07:15:12.162Z,99.99
2018-05-31T07:16:12.203Z,99.99
2018-05-31T07:17:12.449Z,99.99
2018-05-31T07:18:12.291Z,99.99
2018-05-31T07:19:12.347Z,99.99
2018-05-31T07:20:12.391Z,99.99
2018-05-31T07:21:12.429Z,99.99
2018-05-31T07:22:12.480Z,99.99
2018-05-31T07:23:12.620Z,99.99
2018-05-31T07:24:12.561Z,99.99
2018-05-31T07:25:12.580Z,99.99
2018-05-31T07:26:12.616Z,99.99
2018-05-31T07:27:12.684Z,99.99
2018-05-31T07:28:12.724Z,99.99
2018-05-31T07:29:12.958Z,99.99
2018-05-31T07:30:12.801Z,99.99
2018-05-31T07:31:12.843Z,99.99
2018-05-31T07:32:12.869Z,99.99
2018-05-31T07:33:12.924Z,99.99
2018-05-31T07:34:12.968Z,99.99
2018-05-31T07:35:13.015Z,99.99
2018-05-31T07:36:13.076Z,99.99
2018-05-31T07:37:13.094Z,99.99
2018-05-31T07:38:13.134Z,99.99
2018-05-31T07:39:13.369Z,99.99
2018-05-31T07:40:13.216Z,99.99
2018-05-31T07:41:13.247Z,99.99
2018-05-31T07:42:13.301Z,99.99
2018-05-31T07:43:13.329Z,99.99
2018-05-31T07:44:13.668Z,99.99
2018-05-31T07:45:13.427Z,99.99
2018-05-31T07:46:13.452Z,99.99
2018-05-31T07:47:13.496Z,99.99
2018-05-31T07:48:13.545Z,99.99
2018-05-31T07:49:13.680Z,99.99
2018-05-31T07:50:13.821Z,99.99
2018-05-31T07:51:13.667Z,99.99
2018-05-31T07:52:13.711Z,99.99
2018-05-31T07:53:13.760Z,99.99
2018-05-31T07:54:13.788Z,99.99
2018-05-31T07:55:13.820Z,99.99
2018-05-31T07:56:13.990Z,99.99
2018-05-31T07:57:13.906Z,99.99
2018-05-31T07:58:13.967Z,99.99
2018-05-31T07:59:14.010Z,99.99
2018-05-31T08:00:14.053Z,99.99
2018-05-31T08:01:14.293Z,99.99
2018-05-31T08:02:14.144Z,99.99
2018-05-31T08:03:14.188Z,99.99
2018-05-31T08:04:14.219Z,99.99
2018-05-31T08:05:14.240Z,99.99
2018-05-31T08:06:14.294Z,99.99
2018-05-31T08:07:14.422Z,99.99
2018-05-31T08:08:14.382Z,99.99
2018-05-31T08:09:14.426Z,99.99
2018-05-31T08:10:14.453Z,99.99
2018-05-31T08:11:14.538Z,99.99
2018-05-31T08:12:14.542Z,99.99
2018-05-31T08:13:14.570Z,99.99
2018-05-31T08:14:14.634Z,99.99
2018-05-31T08:15:14.679Z,99.99
2018-05-31T08:16:14.705Z,99.99
2018-05-31T08:17:14.953Z,99.99
2018-05-31T08:18:14.791Z,99.99
2018-05-31T08:19:14.843Z,99.99
2018-05-31T08:20:14.876Z,99.99
2018-05-31T08:21:14.923Z,99.99
2018-05-31T08:22:15.062Z,99.99
2018-05-31T08:23:15.001Z,99.99
2018-05-31T08:24:15.028Z,99.99
2018-05-31T08:25:15.068Z,99.99
2018-05-31T08:26:15.128Z,99.99
2018-05-31T08:27:15.163Z,99.99
2018-05-31T08:28:15.412Z,99.99
2018-05-31T08:29:15.252Z,99.99
2018-05-31T08:30:15.287Z,99.99
2018-05-31T08:31:15.330Z,99.99
2018-05-31T08:32:15.358Z,99.99
2018-05-31T08:33:15.413Z,99.99
2018-05-31T08:34:15.553Z,99.99
2018-05-31T08:35:15.488Z,99.99
2018-05-31T08:36:15.528Z,99.99
2018-05-31T08:37:15.591Z,99.99
2018-05-31T08:38:15.620Z,99.99
2018-05-31T08:39:15.671Z,99.99
2018-05-31T08:40:15.893Z,99.99
2018-05-31T08:41:15.745Z,99.99
2018-05-31T08:42:15.778Z,99.99
2018-05-31T08:43:15.824Z,99.99
2018-05-31T08:44:15.859Z,99.99
2018-05-31T08:45:16.018Z,99.99
2018-05-31T08:46:15.943Z,99.99
2018-05-31T08:47:16.004Z,99.99
2018-05-31T08:48:16.044Z,99.99
2018-05-31T08:49:16.075Z,99.99
2018-05-31T08:50:16.102Z,99.99
2018-05-31T08:51:16.370Z,99.99
2018-05-31T08:52:16.211Z,99.99
2018-05-31T08:53:16.234Z,99.99
2018-05-31T08:54:16.289Z,99.99
2018-05-31T08:55:16.322Z,99.99
2018-05-31T08:56:16.351Z,99.99
2018-05-31T08:57:16.408Z,99.99
2018-05-31T08:58:16.433Z,99.99
2018-05-31T08:59:16.508Z,99.99
2018-05-31T09:00:16.532Z,99.99
2018-05-31T09:01:16.670Z,99.99
2018-05-31T09:02:16.615Z,99.99
2018-05-31T09:03:16.655Z,99.99
2018-05-31T09:04:16.700Z,99.99
2018-05-31T09:05:16.740Z,99.99
2018-05-31T09:06:16.983Z,99.99
2018-05-31T09:07:16.821Z,99.99
2018-05-31T09:08:16.859Z,99.99
2018-05-31T09:09:16.915Z,99.99
2018-05-31T09:10:16.949Z,99.99
2018-05-31T09:11:16.980Z,99.99
2018-05-31T09:12:17.115Z,99.99
2018-05-31T09:13:17.076Z,99.99
2018-05-31T09:14:17.117Z,99.99
2018-05-31T09:15:17.145Z,99.99
2018-05-31T09:16:17.176Z,99.99
2018-05-31T09:17:17.244Z,99.99
2018-05-31T09:18:17.273Z,99.99
2018-05-31T09:19:17.329Z,99.99
2018-05-31T09:20:17.365Z,99.99
2018-05-31T09:21:17.409Z,99.99
2018-05-31T09:22:17.629Z,99.99
2018-05-31T09:23:17.490Z,99.99
2018-05-31T09:24:17.517Z,99.99
2018-05-31T09:25:17.574Z,99.99
2018-05-31T09:26:17.620Z,99.99
2018-05-31T09:27:17.737Z,99.99
2018-05-31T09:28:17.681Z,99.99
2018-05-31T09:29:17.739Z,99.99
2018-05-31T09:30:17.763Z,99.99
2018-05-31T09:31:17.804Z,99.99
2018-05-31T09:32:17.869Z,99.99
2018-05-31T09:33:18.007Z,99.99
2018-05-31T09:34:17.924Z,99.99
2018-05-31T09:35:17.992Z,99.99
2018-05-31T09:36:18.020Z,99.99
2018-05-31T09:37:18.061Z,99.99
2018-05-31T09:38:18.099Z,99.99
2018-05-31T09:39:18.234Z,99.99
2018-05-31T09:40:18.174Z,99.99
2018-05-31T09:41:18.227Z,99.99
2018-05-31T09:42:18.262Z,99.99
2018-05-31T09:43:18.311Z,99.99
2018-05-31T09:44:18.350Z,99.99
2018-05-31T09:45:18.583Z,99.99
2018-05-31T09:46:18.433Z,99.99
2018-05-31T09:47:18.461Z,99.99
2018-05-31T09:48:18.527Z,99.99
2018-05-31T09:49:18.555Z,99.99
2018-05-31T09:50:18.596Z,99.99
2018-05-31T09:51:18.634Z,99.99
2018-05-31T09:52:18.662Z,99.99
2018-05-31T09:53:18.724Z,99.99
2018-05-31T09:54:18.750Z,99.99
2018-05-31T09:55:18.900Z,99.99
2018-05-31T09:56:19.047Z,99.99
2018-05-31T09:57:18.871Z,99.99
2018-05-31T09:58:18.920Z,99.99
2018-05-31T09:59:18.975Z,99.99
2018-05-31T10:00:19.013Z,99.99
2018-05-31T10:01:19.048Z,99.99
2018-05-31T10:02:19.178Z,99.99
2018-05-31T10:03:19.141Z,99.99
2018-05-31T10:04:19.189Z,99.99
2018-05-31T10:05:19.214Z,99.99
2018-05-31T10:06:19.261Z,99.99
2018-05-31T10:07:19.481Z,99.99
2018-05-31T10:08:19.338Z,99.99
2018-05-31T10:09:19.392Z,99.99
2018-05-31T10:10:19.409Z,99.99
2018-05-31T10:11:19.468Z,99.99
2018-05-31T10:12:19.507Z,99.99
2018-05-31T10:13:19.648Z,99.99
2018-05-31T10:14:19.589Z,99.99
2018-05-31T10:15:19.628Z,99.99
2018-05-31T10:16:19.666Z,99.99
2018-05-31T10:17:19.704Z,99.99
2018-05-31T10:18:19.756Z,99.99
2018-05-31T10:19:19.774Z,99.99
2018-05-31T10:20:19.832Z,99.99
2018-05-31T10:21:19.860Z,99.99
2018-05-31T10:22:19.916Z,99.99
2018-05-31T10:23:20.159Z,99.99
2018-05-31T10:24:19.979Z,99.99
2018-05-31T10:25:20.025Z,99.99
2018-05-31T10:26:20.080Z,99.99
2018-05-31T10:27:20.151Z,99.99
2018-05-31T10:28:20.255Z,99.99
2018-05-31T10:29:20.193Z,99.99
2018-05-31T10:30:20.239Z,99.99
2018-05-31T10:31:20.277Z,99.99
2018-05-31T10:32:20.323Z,99.99
2018-05-31T10:33:20.351Z,99.99
2018-05-31T10:34:20.389Z,99.99
2018-05-31T10:35:20.447Z,99.99
2018-05-31T10:36:20.495Z,99.99
2018-05-31T10:37:20.520Z,99.99
2018-05-31T10:38:20.772Z,99.99
2018-05-31T10:39:20.707Z,99.99
2018-05-31T10:40:20.664Z,99.99
2018-05-31T10:41:20.694Z,99.99
2018-05-31T10:42:20.728Z,99.99
2018-05-31T10:43:20.777Z,99.99
2018-05-31T10:44:20.839Z,99.99
2018-05-31T10:45:21.067Z,99.99
2018-05-31T10:46:20.918Z,99.99
2018-05-31T10:47:20.964Z,99.99
2018-05-31T10:48:21.002Z,99.99
2018-05-31T10:49:21.054Z,99.99
2018-05-31T10:50:21.197Z,99.99
2018-05-31T10:51:21.139Z,99.99
2018-05-31T10:52:21.184Z,99.99
2018-05-31T10:53:21.241Z,99.99
2018-05-31T10:54:21.263Z,99.99
2018-05-31T10:55:21.307Z,99.99
2018-05-31T10:56:21.366Z,99.99
2018-05-31T10:57:21.435Z,99.99
2018-05-31T10:58:21.445Z,99.99
2018-05-31T10:59:21.568Z,99.99
2018-05-31T11:00:21.656Z,99.99
2018-05-31T11:01:21.593Z,99.99
2018-05-31T11:02:21.647Z,99.99
2018-05-31T11:03:21.678Z,99.99
2018-05-31T11:04:21.744Z,99.99
2018-05-31T11:05:21.789Z,99.99
2018-05-31T11:06:21.835Z,99.50
2018-05-31T11:07:21.881Z,98.73
2018-05-31T11:08:21.922Z,96.26
2018-05-31T11:09:21.969Z,96.36
2018-05-31T11:10:22.129Z,96.26
2018-05-31T11:11:22.067Z,96.26
2018-05-31T11:12:22.123Z,96.27
2018-05-31T11:13:22.159Z,97.91
2018-05-31T11:14:22.225Z,98.78
2018-05-31T11:15:22.281Z,97.77
2018-05-31T11:16:22.309Z,97.19
2018-05-31T11:17:22.368Z,97.24
2018-05-31T11:18:22.420Z,95.30
2018-05-31T11:19:22.474Z,95.88
2018-05-31T11:20:22.622Z,95.68
2018-05-31T11:21:22.549Z,94.82
2018-05-31T11:22:22.618Z,95.06
2018-05-31T11:23:22.659Z,93.90
2018-05-31T11:24:22.709Z,93.03
2018-05-31T11:25:22.761Z,93.32
2018-05-31T11:26:22.820Z,92.83
2018-05-31T11:27:22.949Z,93.13
2018-05-31T11:28:22.909Z,92.45
2018-05-31T11:29:22.967Z,92.16
2018-05-31T11:30:22.992Z,92.74
2018-05-31T11:31:23.059Z,93.32
2018-05-31T11:32:23.410Z,93.18
2018-05-31T11:33:23.164Z,93.08
2018-05-31T11:34:23.202Z,93.47
2018-05-31T11:35:23.257Z,94.00
2018-05-31T11:36:23.290Z,94.00
2018-05-31T11:37:23.348Z,93.95
2018-05-31T11:38:23.512Z,93.51
2018-05-31T11:39:23.460Z,93.51
2018-05-31T11:40:23.496Z,92.59
2018-05-31T11:41:23.551Z,91.58
2018-05-31T11:42:23.607Z,89.93
2018-05-31T11:43:23.838Z,89.93
2018-05-31T11:44:23.710Z,90.27
2018-05-31T11:45:23.754Z,91.14
2018-05-31T11:46:23.814Z,90.41
2018-05-31T11:47:23.863Z,89.93
2018-05-31T11:48:23.890Z,89.20
2018-05-31T11:49:23.967Z,88.18
2018-05-31T11:50:24.010Z,87.12
2018-05-31T11:51:24.058Z,86.29
2018-05-31T11:52:24.112Z,85.41
2018-05-31T11:53:24.242Z,85.41
2018-05-31T11:54:24.220Z,85.61
2018-05-31T11:55:24.247Z,84.93
2018-05-31T11:56:24.299Z,85.31
2018-05-31T11:57:24.362Z,85.31
2018-05-31T11:58:24.402Z,84.93
2018-05-31T11:59:24.475Z,85.31
2018-05-31T12:00:24.648Z,85.03
2018-05-31T12:01:24.550Z,84.74
2018-05-31T12:02:24.600Z,85.03
2018-05-31T12:03:24.673Z,84.14
2018-05-31T12:04:24.721Z,83.72
2018-05-31T12:05:24.954Z,84.00
2018-05-31T12:06:24.848Z,83.42
2018-05-31T12:07:24.859Z,83.23
2018-05-31T12:08:24.928Z,84.16
2018-05-31T12:09:24.972Z,83.96
2018-05-31T12:10:25.027Z,84.06
2018-05-31T12:11:25.433Z,84.01
2018-05-31T12:12:25.130Z,85.08
2018-05-31T12:13:25.192Z,85.76
2018-05-31T12:14:25.232Z,84.55
2018-05-31T12:15:25.286Z,84.06
2018-05-31T12:16:25.330Z,84.20
2018-05-31T12:17:25.607Z,83.13
2018-05-31T12:18:25.446Z,82.45
2018-05-31T12:19:25.517Z,82.40
2018-05-31T12:20:25.539Z,81.57
2018-05-31T12:21:25.599Z,80.21
2018-05-31T12:22:25.851Z,79.43
2018-05-31T12:23:25.700Z,79.30
2018-05-31T12:24:25.751Z,81.04
2018-05-31T12:25:25.806Z,81.33
2018-05-31T12:26:25.857Z,81.62
2018-05-31T12:27:25.908Z,81.47
2018-05-31T12:28:26.059Z,80.21
2018-05-31T12:29:26.005Z,80.44
2018-05-31T12:30:26.060Z,79.28
2018-05-31T12:31:26.127Z,78.67
2018-05-31T12:32:26.168Z,78.50
2018-05-31T12:33:26.213Z,78.64
2018-05-31T12:34:26.363Z,77.47
2018-05-31T12:35:26.329Z,78.05
2018-05-31T12:36:26.365Z,77.70
2018-05-31T12:37:26.424Z,75.85
2018-05-31T12:38:26.470Z,75.27
2018-05-31T12:39:26.528Z,76.54
2018-05-31T12:40:26.775Z,77.37
2018-05-31T12:41:26.631Z,78.34
2018-05-31T12:42:26.684Z,78.34
2018-05-31T12:43:26.746Z,77.70
2018-05-31T12:44:26.790Z,76.18
2018-05-31T12:45:26.853Z,75.31
2018-05-31T12:46:26.996Z,74.82
2018-05-31T12:47:26.958Z,74.08
2018-05-31T12:48:27.011Z,74.44
2018-05-31T12:49:27.059Z,74.79
2018-05-31T12:50:27.112Z,75.27
2018-05-31T12:51:27.269Z,75.37
2018-05-31T12:52:27.217Z,76.05
2018-05-31T12:53:27.285Z,75.95